sensor_id;sensor_type;location;lat;lon;timestamp;pressure;altitude;pressure_sealevel;temperature;humidity
23339;BME280;11841;49.368;20.962;2023-03-26T00:02:15;94825.09;;;6.06;85.67
23339;BME280;11841;49.368;20.962;2023-03-26T00:04:42;94826.56;;;5.96;87.30
23339;BME280;11841;49.368;20.962;2023-03-26T00:07:09;94825.75;;;6.02;86.33
23339;BME280;11841;49.368;20.962;2023-03-26T00:09:35;94826.91;;;6.06;85.76
23339;BME280;11841;49.368;20.962;2023-03-26T00:12:02;94834.59;;;6.14;85.89
23339;BME280;11841;49.368;20.962;2023-03-26T00:14:28;94825.66;;;6.15;86.23
23339;BME280;11841;49.368;20.962;2023-03-26T00:16:55;94839.03;;;6.13;86.76
23339;BME280;11841;49.368;20.962;2023-03-26T00:19:22;94834.97;;;6.18;86.15
23339;BME280;11841;49.368;20.962;2023-03-26T00:21:48;94832.31;;;6.24;86.43
23339;BME280;11841;49.368;20.962;2023-03-26T00:24:16;94827.66;;;6.26;86.08
23339;BME280;11841;49.368;20.962;2023-03-26T00:26:43;94825.38;;;6.30;85.74
23339;BME280;11841;49.368;20.962;2023-03-26T00:29:10;94822.19;;;6.21;85.53
23339;BME280;11841;49.368;20.962;2023-03-26T00:31:37;94820.53;;;6.27;85.44
23339;BME280;11841;49.368;20.962;2023-03-26T00:34:05;94810.81;;;6.27;84.92
23339;BME280;11841;49.368;20.962;2023-03-26T00:36:32;94818.69;;;6.34;84.39
23339;BME280;11841;49.368;20.962;2023-03-26T00:39:01;94819.06;;;6.37;84.58
23339;BME280;11841;49.368;20.962;2023-03-26T00:41:30;94820.09;;;6.36;84.37
23339;BME280;11841;49.368;20.962;2023-03-26T00:43:57;94815.41;;;6.38;84.58
23339;BME280;11841;49.368;20.962;2023-03-26T00:46:25;94809.94;;;6.40;84.46
23339;BME280;11841;49.368;20.962;2023-03-26T00:48:52;94817.25;;;6.38;84.39
23339;BME280;11841;49.368;20.962;2023-03-26T00:51:19;94824.75;;;6.34;83.69
23339;BME280;11841;49.368;20.962;2023-03-26T00:53:47;94823.50;;;6.37;83.63
23339;BME280;11841;49.368;20.962;2023-03-26T00:56:13;94818.63;;;6.40;83.73
23339;BME280;11841;49.368;20.962;2023-03-26T00:58:40;94816.00;;;6.40;83.92
23339;BME280;11841;49.368;20.962;2023-03-26T01:01:09;94816.22;;;6.39;83.79
23339;BME280;11841;49.368;20.962;2023-03-26T01:03:36;94811.75;;;6.39;84.03
23339;BME280;11841;49.368;20.962;2023-03-26T01:06:05;94813.78;;;6.37;84.09
23339;BME280;11841;49.368;20.962;2023-03-26T01:08:35;94813.78;;;6.37;83.73
23339;BME280;11841;49.368;20.962;2023-03-26T01:11:05;94813.63;;;6.32;83.53
23339;BME280;11841;49.368;20.962;2023-03-26T01:13:34;94816.69;;;6.29;83.89
23339;BME280;11841;49.368;20.962;2023-03-26T01:16:02;94812.03;;;6.25;83.91
23339;BME280;11841;49.368;20.962;2023-03-26T01:18:32;94819.16;;;6.24;83.20
23339;BME280;11841;49.368;20.962;2023-03-26T01:21:06;94813.50;;;6.21;83.39
23339;BME280;11841;49.368;20.962;2023-03-26T01:23:44;94813.94;;;6.11;84.06
23339;BME280;11841;49.368;20.962;2023-03-26T01:26:20;94822.13;;;5.96;84.08
23339;BME280;11841;49.368;20.962;2023-03-26T01:28:52;94819.06;;;5.99;84.30
23339;BME280;11841;49.368;20.962;2023-03-26T01:31:25;94816.41;;;6.06;83.62
23339;BME280;11841;49.368;20.962;2023-03-26T01:36:46;94813.53;;;6.14;82.81
23339;BME280;11841;49.368;20.962;2023-03-26T01:41:47;94808.28;;;6.07;83.24
23339;BME280;11841;49.368;20.962;2023-03-26T01:44:19;94809.97;;;6.02;83.31
23339;BME280;11841;49.368;20.962;2023-03-26T01:46:48;94815.63;;;5.99;83.84
23339;BME280;11841;49.368;20.962;2023-03-26T01:49:16;94815.63;;;6.05;83.67
23339;BME280;11841;49.368;20.962;2023-03-26T01:51:43;94815.63;;;6.05;83.57
23339;BME280;11841;49.368;20.962;2023-03-26T01:54:10;94827.75;;;6.06;83.51
23339;BME280;11841;49.368;20.962;2023-03-26T01:56:49;94816.81;;;6.03;83.50
23339;BME280;11841;49.368;20.962;2023-03-26T02:07:02;94805.13;;;5.92;82.96
23339;BME280;11841;49.368;20.962;2023-03-26T02:09:32;94806.16;;;5.91;82.78
23339;BME280;11841;49.368;20.962;2023-03-26T02:12:01;94801.16;;;5.77;83.24
23339;BME280;11841;49.368;20.962;2023-03-26T02:14:29;94795.50;;;5.67;83.93
23339;BME280;11841;49.368;20.962;2023-03-26T02:16:56;94792.28;;;5.65;84.10
23339;BME280;11841;49.368;20.962;2023-03-26T02:19:23;94793.28;;;5.64;84.31
23339;BME280;11841;49.368;20.962;2023-03-26T02:21:50;94780.81;;;5.53;84.73
23339;BME280;11841;49.368;20.962;2023-03-26T02:24:17;94805.66;;;5.57;84.84
23339;BME280;11841;49.368;20.962;2023-03-26T02:26:44;94800.41;;;5.63;85.06
23339;BME280;11841;49.368;20.962;2023-03-26T02:29:12;94792.13;;;5.60;84.86
23339;BME280;11841;49.368;20.962;2023-03-26T02:31:39;94794.31;;;5.63;84.83
23339;BME280;11841;49.368;20.962;2023-03-26T02:34:05;94794.69;;;5.73;84.75
23339;BME280;11841;49.368;20.962;2023-03-26T02:36:32;94792.22;;;5.78;85.18
23339;BME280;11841;49.368;20.962;2023-03-26T02:39:01;94793.84;;;5.79;84.59
23339;BME280;11841;49.368;20.962;2023-03-26T02:41:27;94789.59;;;5.78;84.84
23339;BME280;11841;49.368;20.962;2023-03-26T02:43:54;94796.28;;;5.74;85.74
23339;BME280;11841;49.368;20.962;2023-03-26T02:46:20;94788.56;;;5.79;85.30
23339;BME280;11841;49.368;20.962;2023-03-26T02:48:47;94801.94;;;5.84;84.83
23339;BME280;11841;49.368;20.962;2023-03-26T02:51:15;94801.94;;;5.84;84.65
23339;BME280;11841;49.368;20.962;2023-03-26T02:53:43;94801.50;;;5.80;84.90
23339;BME280;11841;49.368;20.962;2023-03-26T02:56:09;94801.53;;;5.74;85.42
23339;BME280;11841;49.368;20.962;2023-03-26T02:58:37;94803.34;;;5.80;85.30
23339;BME280;11841;49.368;20.962;2023-03-26T03:01:04;94800.72;;;5.80;85.04
23339;BME280;11841;49.368;20.962;2023-03-26T03:03:30;94794.25;;;5.82;84.90
23339;BME280;11841;49.368;20.962;2023-03-26T03:05:57;94790.63;;;5.83;84.76
23339;BME280;11841;49.368;20.962;2023-03-26T03:08:24;94791.19;;;5.85;84.49
23339;BME280;11841;49.368;20.962;2023-03-26T03:10:58;94789.38;;;5.79;84.83
23339;BME280;11841;49.368;20.962;2023-03-26T03:13:25;94793.44;;;5.75;84.86
23339;BME280;11841;49.368;20.962;2023-03-26T03:15:51;94797.16;;;5.61;86.13
23339;BME280;11841;49.368;20.962;2023-03-26T03:18:18;94793.53;;;5.56;85.86
23339;BME280;11841;49.368;20.962;2023-03-26T03:20:45;94797.16;;;5.61;85.58
23339;BME280;11841;49.368;20.962;2023-03-26T03:23:12;94797.94;;;5.62;85.50
23339;BME280;11841;49.368;20.962;2023-03-26T03:25:38;94804.84;;;5.63;84.89
23339;BME280;11841;49.368;20.962;2023-03-26T03:28:07;94806.88;;;5.61;84.82
23339;BME280;11841;49.368;20.962;2023-03-26T03:30:34;94810.31;;;5.61;84.85
23339;BME280;11841;49.368;20.962;2023-03-26T03:33:01;94810.31;;;5.61;84.11
23339;BME280;11841;49.368;20.962;2023-03-26T03:35:28;94813.94;;;5.60;84.13
23339;BME280;11841;49.368;20.962;2023-03-26T03:37:55;94821.03;;;5.60;84.34
23339;BME280;11841;49.368;20.962;2023-03-26T03:40:22;94819.59;;;5.64;84.15
23339;BME280;11841;49.368;20.962;2023-03-26T03:42:48;94812.50;;;5.64;83.95
23339;BME280;11841;49.368;20.962;2023-03-26T03:45:15;94816.97;;;5.64;84.02
23339;BME280;11841;49.368;20.962;2023-03-26T03:47:42;94812.72;;;5.63;83.71
23339;BME280;11841;49.368;20.962;2023-03-26T03:50:08;94798.78;;;5.56;84.26
23339;BME280;11841;49.368;20.962;2023-03-26T03:52:35;94807.50;;;5.56;84.48
23339;BME280;11841;49.368;20.962;2023-03-26T03:55:02;94810.34;;;5.55;84.19
23339;BME280;11841;49.368;20.962;2023-03-26T03:57:29;94797.59;;;5.52;84.10
23339;BME280;11841;49.368;20.962;2023-03-26T03:59:57;94794.78;;;5.47;83.77
23339;BME280;11841;49.368;20.962;2023-03-26T04:02:24;94795.59;;;5.41;83.89
23339;BME280;11841;49.368;20.962;2023-03-26T04:05:00;94793.97;;;5.40;83.64
23339;BME280;11841;49.368;20.962;2023-03-26T04:07:27;94799.69;;;5.30;84.34
23339;BME280;11841;49.368;20.962;2023-03-26T04:09:56;94805.94;;;5.23;84.38
23339;BME280;11841;49.368;20.962;2023-03-26T04:12:26;94808.19;;;5.26;84.41
23339;BME280;11841;49.368;20.962;2023-03-26T04:14:53;94808.78;;;5.28;84.35
23339;BME280;11841;49.368;20.962;2023-03-26T04:17:19;94813.44;;;5.26;84.20
23339;BME280;11841;49.368;20.962;2023-03-26T04:19:49;94817.47;;;5.22;83.81
23339;BME280;11841;49.368;20.962;2023-03-26T04:22:18;94805.59;;;5.19;83.52
23339;BME280;11841;49.368;20.962;2023-03-26T04:24:44;94815.88;;;5.21;83.88
23339;BME280;11841;49.368;20.962;2023-03-26T04:27:12;94807.38;;;5.19;83.73
23339;BME280;11841;49.368;20.962;2023-03-26T04:29:40;94815.91;;;5.14;83.52
23339;BME280;11841;49.368;20.962;2023-03-26T04:32:11;94811.44;;;5.08;83.47
23339;BME280;11841;49.368;20.962;2023-03-26T04:34:41;94807.81;;;5.03;83.60
23339;BME280;11841;49.368;20.962;2023-03-26T04:37:13;94805.59;;;5.00;83.36
23339;BME280;11841;49.368;20.962;2023-03-26T04:39:44;94801.38;;;4.99;83.47
23339;BME280;11841;49.368;20.962;2023-03-26T04:42:10;94804.00;;;4.92;83.33
23339;BME280;11841;49.368;20.962;2023-03-26T04:44:37;94806.41;;;4.87;83.23
23339;BME280;11841;49.368;20.962;2023-03-26T04:47:03;94813.91;;;4.83;83.07
23339;BME280;11841;49.368;20.962;2023-03-26T04:49:30;94803.41;;;4.83;83.67
23339;BME280;11841;49.368;20.962;2023-03-26T04:51:56;94811.66;;;4.80;83.11
23339;BME280;11841;49.368;20.962;2023-03-26T04:54:23;94814.91;;;4.76;83.32
23339;BME280;11841;49.368;20.962;2023-03-26T04:56:52;94817.13;;;4.72;83.97
23339;BME280;11841;49.368;20.962;2023-03-26T04:59:21;94814.50;;;4.72;83.97
23339;BME280;11841;49.368;20.962;2023-03-26T05:01:51;94804.63;;;4.74;83.97
23339;BME280;11841;49.368;20.962;2023-03-26T05:04:18;94807.25;;;4.74;84.04
23339;BME280;11841;49.368;20.962;2023-03-26T05:06:44;94808.22;;;4.73;84.42
23339;BME280;11841;49.368;20.962;2023-03-26T05:09:11;94809.88;;;4.74;84.71
23339;BME280;11841;49.368;20.962;2023-03-26T05:11:37;94803.78;;;4.74;84.33
23339;BME280;11841;49.368;20.962;2023-03-26T05:14:04;94813.09;;;4.76;84.75
23339;BME280;11841;49.368;20.962;2023-03-26T05:16:30;94820.56;;;4.79;85.16
23339;BME280;11841;49.368;20.962;2023-03-26T05:18:57;94820.16;;;4.82;84.91
23339;BME280;11841;49.368;20.962;2023-03-26T05:21:24;94818.16;;;4.84;85.25
23339;BME280;11841;49.368;20.962;2023-03-26T05:23:51;94811.88;;;4.85;85.37
23339;BME280;11841;49.368;20.962;2023-03-26T05:26:17;94811.47;;;4.88;84.95
23339;BME280;11841;49.368;20.962;2023-03-26T05:28:44;94803.00;;;4.86;85.12
23339;BME280;11841;49.368;20.962;2023-03-26T05:31:10;94796.31;;;4.84;85.18
23339;BME280;11841;49.368;20.962;2023-03-26T05:33:37;94806.22;;;4.82;85.63
23339;BME280;11841;49.368;20.962;2023-03-26T05:36:04;94806.81;;;4.84;85.53
23339;BME280;11841;49.368;20.962;2023-03-26T05:38:32;94814.28;;;4.87;85.29
23339;BME280;11841;49.368;20.962;2023-03-26T05:40:59;94807.44;;;4.86;85.03
23339;BME280;11841;49.368;20.962;2023-03-26T05:43:26;94808.66;;;4.83;85.21
23339;BME280;11841;49.368;20.962;2023-03-26T05:45:53;94803.78;;;4.80;85.48
23339;BME280;11841;49.368;20.962;2023-03-26T05:48:20;94814.72;;;4.77;85.86
23339;BME280;11841;49.368;20.962;2023-03-26T05:50:50;94809.47;;;4.77;85.77
23339;BME280;11841;49.368;20.962;2023-03-26T05:53:17;94805.22;;;4.83;85.93
23339;BME280;11841;49.368;20.962;2023-03-26T05:55:44;94813.50;;;4.86;85.93
23339;BME280;11841;49.368;20.962;2023-03-26T05:58:12;94819.53;;;4.87;85.73
23339;BME280;11841;49.368;20.962;2023-03-26T06:00:38;94805.63;;;4.86;86.08
23339;BME280;11841;49.368;20.962;2023-03-26T06:03:05;94797.31;;;4.89;86.29
23339;BME280;11841;49.368;20.962;2023-03-26T06:05:38;94808.03;;;4.94;86.31
23339;BME280;11841;49.368;20.962;2023-03-26T06:08:05;94808.03;;;4.94;86.58
23339;BME280;11841;49.368;20.962;2023-03-26T06:10:32;94801.38;;;4.99;86.49
23339;BME280;11841;49.368;20.962;2023-03-26T06:12:58;94801.78;;;5.02;86.46
23339;BME280;11841;49.368;20.962;2023-03-26T06:15:25;94814.88;;;5.09;86.39
23339;BME280;11841;49.368;20.962;2023-03-26T06:17:51;94807.81;;;5.16;86.75
23339;BME280;11841;49.368;20.962;2023-03-26T06:20:18;94817.69;;;5.20;88.25
23339;BME280;11841;49.368;20.962;2023-03-26T06:22:44;94811.78;;;5.31;88.37
23339;BME280;11841;49.368;20.962;2023-03-26T06:25:11;94815.41;;;5.43;89.18
23339;BME280;11841;49.368;20.962;2023-03-26T06:27:37;94807.28;;;5.58;89.16
23339;BME280;11841;49.368;20.962;2023-03-26T06:30:04;94810.47;;;5.73;88.19
23339;BME280;11841;49.368;20.962;2023-03-26T06:32:31;94812.84;;;5.87;87.39
23339;BME280;11841;49.368;20.962;2023-03-26T06:34:57;94814.19;;;6.03;86.47
23339;BME280;11841;49.368;20.962;2023-03-26T06:37:24;94801.78;;;6.17;84.91
23339;BME280;11841;49.368;20.962;2023-03-26T06:39:50;94809.78;;;6.28;84.55
23339;BME280;11841;49.368;20.962;2023-03-26T06:42:17;94809.72;;;6.41;84.08
23339;BME280;11841;49.368;20.962;2023-03-26T06:44:43;94818.75;;;6.52;82.56
23339;BME280;11841;49.368;20.962;2023-03-26T06:47:10;94811.56;;;6.65;81.15
23339;BME280;11841;49.368;20.962;2023-03-26T06:49:36;94808.25;;;6.76;80.74
23339;BME280;11841;49.368;20.962;2023-03-26T06:52:03;94808.13;;;6.89;79.72
23339;BME280;11841;49.368;20.962;2023-03-26T06:54:30;94803.78;;;7.01;79.71
23339;BME280;11841;49.368;20.962;2023-03-26T06:56:56;94810.16;;;7.12;79.52
23339;BME280;11841;49.368;20.962;2023-03-26T06:59:24;94810.53;;;7.15;78.98
23339;BME280;11841;49.368;20.962;2023-03-26T07:01:51;94807.84;;;7.22;78.70
23339;BME280;11841;49.368;20.962;2023-03-26T07:04:17;94804.91;;;7.30;77.62
23339;BME280;11841;49.368;20.962;2023-03-26T07:06:43;94809.69;;;7.40;78.33
23339;BME280;11841;49.368;20.962;2023-03-26T07:09:11;94809.69;;;7.58;77.13
23339;BME280;11841;49.368;20.962;2023-03-26T07:11:37;94805.31;;;7.70;75.95
23339;BME280;11841;49.368;20.962;2023-03-26T07:14:04;94809.69;;;7.76;77.64
23339;BME280;11841;49.368;20.962;2023-03-26T07:16:30;94796.63;;;7.81;76.64
23339;BME280;11841;49.368;20.962;2023-03-26T07:18:57;94803.91;;;7.85;76.47
23339;BME280;11841;49.368;20.962;2023-03-26T07:21:23;94804.28;;;7.89;76.67
23339;BME280;11841;49.368;20.962;2023-03-26T07:23:50;94792.69;;;7.90;75.99
23339;BME280;11841;49.368;20.962;2023-03-26T07:29:02;94795.59;;;8.00;74.44
23339;BME280;11841;49.368;20.962;2023-03-26T07:31:51;94792.06;;;8.06;73.65
23339;BME280;11841;49.368;20.962;2023-03-26T07:39:55;94784.53;;;8.39;72.67
23339;BME280;11841;49.368;20.962;2023-03-26T07:42:27;94795.00;;;8.45;72.50
23339;BME280;11841;49.368;20.962;2023-03-26T07:47:43;94778.03;;;8.53;70.50
23339;BME280;11841;49.368;20.962;2023-03-26T07:50:15;94788.25;;;8.61;71.38
23339;BME280;11841;49.368;20.962;2023-03-26T07:52:44;94776.22;;;8.77;70.85
23339;BME280;11841;49.368;20.962;2023-03-26T07:55:11;94784.16;;;8.88;70.68
23339;BME280;11841;49.368;20.962;2023-03-26T07:57:43;94771.53;;;9.02;70.90
23339;BME280;11841;49.368;20.962;2023-03-26T08:15:32;94785.19;;;9.33;67.56
23339;BME280;11841;49.368;20.962;2023-03-26T08:20:50;94781.97;;;9.54;65.66
23339;BME280;11841;49.368;20.962;2023-03-26T08:23:22;94781.75;;;9.56;65.33
23339;BME280;11841;49.368;20.962;2023-03-26T08:28:26;94775.19;;;9.58;64.92
23339;BME280;11841;49.368;20.962;2023-03-26T08:30:55;94790.13;;;9.64;64.61
23339;BME280;11841;49.368;20.962;2023-03-26T08:33:24;94783.44;;;9.73;64.36
23339;BME280;11841;49.368;20.962;2023-03-26T08:35:51;94779.94;;;9.85;64.12
23339;BME280;11841;49.368;20.962;2023-03-26T08:38:18;94776.53;;;9.84;63.60
23339;BME280;11841;49.368;20.962;2023-03-26T08:45:50;94772.97;;;10.07;63.75
23339;BME280;11841;49.368;20.962;2023-03-26T08:48:32;94766.78;;;10.01;62.08
23339;BME280;11841;49.368;20.962;2023-03-26T09:29:54;94758.16;;;10.34;61.29
23339;BME280;11841;49.368;20.962;2023-03-26T09:37:24;94748.88;;;10.48;61.29
23339;BME280;11841;49.368;20.962;2023-03-26T09:40:10;94747.81;;;10.49;61.67
23339;BME280;11841;49.368;20.962;2023-03-26T10:24:19;94723.91;;;10.93;59.68
23339;BME280;11841;49.368;20.962;2023-03-26T10:32:08;94722.72;;;11.01;58.80
23339;BME280;11841;49.368;20.962;2023-03-26T10:52:26;94685.13;;;11.47;57.16
23339;BME280;11841;49.368;20.962;2023-03-26T10:55:17;94692.09;;;11.53;57.06
23339;BME280;11841;49.368;20.962;2023-03-26T11:00:12;94697.66;;;11.52;56.23
23339;BME280;11841;49.368;20.962;2023-03-26T11:02:42;94691.97;;;11.43;55.72
23339;BME280;11841;49.368;20.962;2023-03-26T11:10:18;94692.53;;;11.45;55.78
23339;BME280;11841;49.368;20.962;2023-03-26T11:15:40;94688.31;;;11.49;55.90
23339;BME280;11841;49.368;20.962;2023-03-26T11:20:37;94675.06;;;11.49;56.17
23339;BME280;11841;49.368;20.962;2023-03-26T11:23:11;94683.66;;;11.56;55.90
23339;BME280;11841;49.368;20.962;2023-03-26T11:33:38;94676.56;;;11.62;54.78
23339;BME280;11841;49.368;20.962;2023-03-26T11:36:15;94671.59;;;11.65;55.49
23339;BME280;11841;49.368;20.962;2023-03-26T11:38:44;94661.41;;;11.62;55.45
23339;BME280;11841;49.368;20.962;2023-03-26T11:41:15;94675.28;;;11.64;55.04
23339;BME280;11841;49.368;20.962;2023-03-26T11:43:52;94670.00;;;11.69;55.37
23339;BME280;11841;49.368;20.962;2023-03-26T11:46:21;94676.69;;;11.72;55.96
23339;BME280;11841;49.368;20.962;2023-03-26T11:51:23;94682.50;;;11.69;54.64
23339;BME280;11841;49.368;20.962;2023-03-26T11:53:51;94677.44;;;11.67;54.40
23339;BME280;11841;49.368;20.962;2023-03-26T11:58:50;94662.47;;;11.61;53.32
23339;BME280;11841;49.368;20.962;2023-03-26T12:01:26;94671.38;;;11.72;53.83
23339;BME280;11841;49.368;20.962;2023-03-26T12:03:57;94656.38;;;11.82;53.03
23339;BME280;11841;49.368;20.962;2023-03-26T12:06:28;94664.97;;;11.89;53.27
23339;BME280;11841;49.368;20.962;2023-03-26T12:08:55;94649.25;;;11.88;52.89
23339;BME280;11841;49.368;20.962;2023-03-26T12:11:24;94658.56;;;11.90;52.50
23339;BME280;11841;49.368;20.962;2023-03-26T12:13:54;94651.41;;;11.91;52.10
23339;BME280;11841;49.368;20.962;2023-03-26T12:16:23;94645.34;;;11.95;52.81
23339;BME280;11841;49.368;20.962;2023-03-26T12:18:57;94651.28;;;12.02;52.80
23339;BME280;11841;49.368;20.962;2023-03-26T12:21:24;94642.50;;;12.02;52.75
23339;BME280;11841;49.368;20.962;2023-03-26T12:26:30;94641.16;;;11.99;51.16
23339;BME280;11841;49.368;20.962;2023-03-26T12:29:04;94640.53;;;11.92;50.74
23339;BME280;11841;49.368;20.962;2023-03-26T12:31:39;94634.97;;;11.94;50.93
23339;BME280;11841;49.368;20.962;2023-03-26T12:34:15;94633.34;;;11.93;51.34
23339;BME280;11841;49.368;20.962;2023-03-26T12:36:49;94625.16;;;11.94;51.93
23339;BME280;11841;49.368;20.962;2023-03-26T12:39:27;94628.09;;;11.98;51.07
23339;BME280;11841;49.368;20.962;2023-03-26T12:42:25;94627.31;;;11.97;51.41
23339;BME280;11841;49.368;20.962;2023-03-26T12:45:12;94619.34;;;11.97;51.75
23339;BME280;11841;49.368;20.962;2023-03-26T12:47:39;94614.09;;;12.02;52.39
23339;BME280;11841;49.368;20.962;2023-03-26T13:06:10;94593.06;;;12.69;51.91
23339;BME280;11841;49.368;20.962;2023-03-26T13:24:12;94559.91;;;12.82;48.78
23339;BME280;11841;49.368;20.962;2023-03-26T13:37:26;94537.97;;;13.01;45.57
23339;BME280;11841;49.368;20.962;2023-03-26T13:47:57;94546.00;;;12.70;47.37
23339;BME280;11841;49.368;20.962;2023-03-26T13:50:43;94542.06;;;12.77;48.11
23339;BME280;11841;49.368;20.962;2023-03-26T13:53:17;94539.16;;;12.79;48.89
23339;BME280;11841;49.368;20.962;2023-03-26T13:55:47;94535.66;;;12.73;48.38
23339;BME280;11841;49.368;20.962;2023-03-26T13:58:19;94537.28;;;12.74;49.38
23339;BME280;11841;49.368;20.962;2023-03-26T14:00:48;94525.59;;;12.80;49.13
23339;BME280;11841;49.368;20.962;2023-03-26T14:05:50;94518.44;;;12.81;49.22
23339;BME280;11841;49.368;20.962;2023-03-26T14:08:20;94522.69;;;12.82;49.85
23339;BME280;11841;49.368;20.962;2023-03-26T14:10:51;94520.81;;;12.77;49.26
23339;BME280;11841;49.368;20.962;2023-03-26T14:16:00;94511.22;;;12.76;48.30
23339;BME280;11841;49.368;20.962;2023-03-26T14:18:36;94508.25;;;12.73;48.69
23339;BME280;11841;49.368;20.962;2023-03-26T14:21:12;94511.47;;;12.75;48.95
23339;BME280;11841;49.368;20.962;2023-03-26T14:27:00;94500.06;;;12.74;47.35
23339;BME280;11841;49.368;20.962;2023-03-26T14:47:32;94514.88;;;12.65;49.53
23339;BME280;11841;49.368;20.962;2023-03-26T14:52:49;94512.44;;;12.54;49.78
23339;BME280;11841;49.368;20.962;2023-03-26T14:57:51;94511.69;;;12.63;50.52
23339;BME280;11841;49.368;20.962;2023-03-26T15:00:45;94502.88;;;12.63;50.01
23339;BME280;11841;49.368;20.962;2023-03-26T15:11:24;94510.31;;;12.61;51.13
23339;BME280;11841;49.368;20.962;2023-03-26T15:25:08;94517.72;;;12.49;52.34
23339;BME280;11841;49.368;20.962;2023-03-26T15:27:49;94515.03;;;12.44;54.15
23339;BME280;11841;49.368;20.962;2023-03-26T15:30:41;94518.69;;;12.38;54.11
23339;BME280;11841;49.368;20.962;2023-03-26T15:49:22;94510.53;;;12.07;57.34
23339;BME280;11841;49.368;20.962;2023-03-26T15:54:36;94506.72;;;11.98;57.93
23339;BME280;11841;49.368;20.962;2023-03-26T15:59:54;94498.19;;;11.96;58.81
23339;BME280;11841;49.368;20.962;2023-03-26T16:05:23;94498.03;;;11.76;59.24
23339;BME280;11841;49.368;20.962;2023-03-26T16:10:53;94483.47;;;11.79;59.75
23339;BME280;11841;49.368;20.962;2023-03-26T16:18:31;94479.41;;;11.71;60.47
23339;BME280;11841;49.368;20.962;2023-03-26T16:26:17;94481.91;;;11.56;60.09
23339;BME280;11841;49.368;20.962;2023-03-26T16:41:30;94489.69;;;11.10;61.12
23339;BME280;11841;49.368;20.962;2023-03-26T16:47:26;94476.19;;;10.89;61.19
23339;BME280;11841;49.368;20.962;2023-03-26T16:49:40;94477.88;;;10.74;61.78
23339;BME280;11841;49.368;20.962;2023-03-26T16:57:29;94491.78;;;10.43;61.57
23339;BME280;11841;49.368;20.962;2023-03-26T17:08:40;94484.69;;;9.94;62.30
23339;BME280;11841;49.368;20.962;2023-03-26T17:11:18;94487.41;;;9.82;62.57
23339;BME280;11841;49.368;20.962;2023-03-26T17:16:38;94501.44;;;9.49;63.04
23339;BME280;11841;49.368;20.962;2023-03-26T17:19:23;94509.78;;;9.41;63.37
23339;BME280;11841;49.368;20.962;2023-03-26T17:21:57;94510.84;;;9.29;63.00
23339;BME280;11841;49.368;20.962;2023-03-26T17:27:05;94515.91;;;9.02;64.15
23339;BME280;11841;49.368;20.962;2023-03-26T17:29:50;94507.22;;;8.90;63.89
23339;BME280;11841;49.368;20.962;2023-03-26T17:32:23;94516.78;;;8.80;64.65
23339;BME280;11841;49.368;20.962;2023-03-26T17:44:53;94518.13;;;8.42;64.87
23339;BME280;11841;49.368;20.962;2023-03-26T17:49:52;94524.22;;;8.31;65.18
23339;BME280;11841;49.368;20.962;2023-03-26T17:52:21;94520.91;;;8.24;64.74
23339;BME280;11841;49.368;20.962;2023-03-26T17:54:51;94521.44;;;8.15;65.08
23339;BME280;11841;49.368;20.962;2023-03-26T17:57:30;94519.97;;;8.07;65.48
23339;BME280;11841;49.368;20.962;2023-03-26T17:59:58;94520.66;;;8.03;65.72
23339;BME280;11841;49.368;20.962;2023-03-26T18:02:33;94511.84;;;7.97;66.14
23339;BME280;11841;49.368;20.962;2023-03-26T18:05:02;94504.22;;;7.89;65.61
23339;BME280;11841;49.368;20.962;2023-03-26T18:07:38;94514.91;;;7.83;66.01
23339;BME280;11841;49.368;20.962;2023-03-26T18:10:13;94521.56;;;7.74;66.34
23339;BME280;11841;49.368;20.962;2023-03-26T18:15:14;94516.22;;;7.51;66.27
23339;BME280;11841;49.368;20.962;2023-03-26T18:17:46;94522.97;;;7.47;66.71
23339;BME280;11841;49.368;20.962;2023-03-26T18:20:26;94519.66;;;7.40;67.00
23339;BME280;11841;49.368;20.962;2023-03-26T18:22:54;94515.03;;;7.35;67.32
23339;BME280;11841;49.368;20.962;2023-03-26T18:25:24;94512.16;;;7.25;66.78
23339;BME280;11841;49.368;20.962;2023-03-26T18:27:54;94510.44;;;7.19;67.43
23339;BME280;11841;49.368;20.962;2023-03-26T18:30:22;94512.59;;;7.10;67.22
23339;BME280;11841;49.368;20.962;2023-03-26T18:32:51;94505.56;;;7.04;67.67
23339;BME280;11841;49.368;20.962;2023-03-26T18:35:24;94515.72;;;7.01;67.64
23339;BME280;11841;49.368;20.962;2023-03-26T18:37:52;94514.22;;;6.93;67.29
23339;BME280;11841;49.368;20.962;2023-03-26T18:40:20;94513.50;;;6.86;68.08
23339;BME280;11841;49.368;20.962;2023-03-26T18:42:48;94515.09;;;6.87;68.07
23339;BME280;11841;49.368;20.962;2023-03-26T18:45:32;94516.81;;;6.82;68.09
23339;BME280;11841;49.368;20.962;2023-03-26T18:48:01;94522.97;;;6.76;68.39
23339;BME280;11841;49.368;20.962;2023-03-26T18:50:33;94517.56;;;6.71;68.94
23339;BME280;11841;49.368;20.962;2023-03-26T18:53:06;94513.41;;;6.63;68.99
23339;BME280;11841;49.368;20.962;2023-03-26T18:55:34;94519.09;;;6.60;69.66
23339;BME280;11841;49.368;20.962;2023-03-26T19:00:57;94498.03;;;6.60;70.14
23339;BME280;11841;49.368;20.962;2023-03-26T19:03:25;94509.47;;;6.54;69.99
23339;BME280;11841;49.368;20.962;2023-03-26T19:05:52;94511.06;;;6.55;70.38
23339;BME280;11841;49.368;20.962;2023-03-26T19:08:20;94507.41;;;6.56;71.22
23339;BME280;11841;49.368;20.962;2023-03-26T19:10:49;94496.88;;;6.56;71.03
23339;BME280;11841;49.368;20.962;2023-03-26T19:13:16;94496.44;;;6.59;70.78
23339;BME280;11841;49.368;20.962;2023-03-26T19:15:46;94489.19;;;6.55;70.80
23339;BME280;11841;49.368;20.962;2023-03-26T19:18:23;94485.16;;;6.52;70.63
23339;BME280;11841;49.368;20.962;2023-03-26T19:20:54;94484.81;;;6.49;71.48
23339;BME280;11841;49.368;20.962;2023-03-26T19:23:33;94474.88;;;6.51;70.86
23339;BME280;11841;49.368;20.962;2023-03-26T19:26:02;94479.09;;;6.52;72.32
23339;BME280;11841;49.368;20.962;2023-03-26T19:28:31;94476.25;;;6.53;72.15
23339;BME280;11841;49.368;20.962;2023-03-26T19:31:06;94474.63;;;6.52;71.52